Estación Meteorológica Peña el Pijo (Robertgarden) [ 02/03/23 04:38:44 CET ]

Fecha Hora Presion(HPa) Temp (°C) Humedad % Rocio (°C) Viento ( m/s) Direccion Lluvia 1Hora(mm) Lluvia 24H(mm) LLuvia Total(mm)
2010-Apr-12 01:01:10 1001.400 8.9 70 3.7         105.67
2010-Apr-12 02:01:12 1001.100 9.3 70 4.1         105.67
2010-Apr-12 03:03:15 1000.500 9.0 72 4.2         105.67
2010-Apr-12 04:01:12 1000.000 9.0 73 4.4         105.67
2010-Apr-12 05:01:21 999.900 8.5 76 4.5         105.67
2010-Apr-12 06:01:13 999.700 7.4 77 3.6         105.67
2010-Apr-12 07:01:14 999.100 7.1 77 3.3         105.67
2010-Apr-12 08:01:14 999.200 7.3 75 3.1         105.67
2010-Apr-12 09:01:14 999.300 9.2 69 3.8         105.67
2010-Apr-12 10:01:13 999.000 12.8 60 5.2         105.67
2010-Apr-12 11:01:12 999.000 14.8 49 4.2         105.67
2010-Apr-12 12:01:11 999.300 18.4 41 4.9         105.67
2010-Apr-12 13:01:10 998.900 17.5 40 3.8         105.67
2010-Apr-12 14:01:15 998.600 17.7 44 5.2         105.67
2010-Apr-12 15:01:14 998.500 17.2 45 5.1         105.67
2010-Apr-12 16:01:14 998.000 16.9 46 5.1         105.67
2010-Apr-12 17:01:12 997.800 15.5 56 6.7         105.67
2010-Apr-12 18:01:14 997.400 13.3 69 7.7         105.67
2010-Apr-12 19:01:12 997.700 13.2 70 7.9         105.67
2010-Apr-12 20:01:17 998.000 12.8 71 7.7         105.67
2010-Apr-12 21:01:12 998.900 11.4 77 7.5 0.9 N     105.67
2010-Apr-12 22:01:14 1000.000 9.5 84 6.9     1.03 1.03 106.70
2010-Apr-12 23:01:17 1000.300 9.3 87 7.2       1.03 106.70

Temperatura Máxima:18°    Temperatura Mínima:
Presión Máxima:1001.400 Hpa    Presión Mínima:997.400 Hpa


Volver